Terminal Aerodrome Forecast
Issued by NWS

Home | Current Version | Previous Version | Text Only | Print | Product List | Glossary On
Versions: 1 2 3 4 5 6 7 8 9 10 11 12 13 14 15 16 17 18 19 20 21 22 23 24
000
FTUS46 KLOX 190800 AAA
TAFPRB
TAF AMD
KPRB 190800Z 1908/2006 00000KT P6SM BKN015
     FM191900 18006KT P6SM VCSH SCT025 BKN035
     FM200200 VRB03KT P6SM VCSH SCT010 BKN030=

USA.gov is the U.S. government's official web portal to all federal, state and local government web resources and services.